createdAt,value
2023-04-16T00:01:31.410Z,2.63
2023-04-16T00:04:00.239Z,2.60
2023-04-16T00:06:29.253Z,2.90
2023-04-16T00:08:57.696Z,2.93
2023-04-16T00:11:26.476Z,2.80
2023-04-16T00:13:56.421Z,2.70
2023-04-16T00:16:24.900Z,2.27
2023-04-16T00:18:53.433Z,2.63
2023-04-16T00:21:22.031Z,2.47
2023-04-16T00:23:50.483Z,2.53
2023-04-16T00:26:19.111Z,2.50
2023-04-16T00:28:47.593Z,2.33
2023-04-16T00:31:17.484Z,2.50
2023-04-16T00:33:46.319Z,2.20
2023-04-16T00:36:14.784Z,2.13
2023-04-16T00:38:43.276Z,2.23
2023-04-16T00:41:11.958Z,2.07
2023-04-16T00:43:40.515Z,2.40
2023-04-16T00:46:09.047Z,2.50
2023-04-16T00:48:39.882Z,2.40
2023-04-16T00:51:09.214Z,2.20
2023-04-16T00:53:37.838Z,2.30
2023-04-16T00:56:07.341Z,2.40
2023-04-16T00:58:36.626Z,2.70
2023-04-16T01:01:05.225Z,2.10
2023-04-16T01:03:39.615Z,2.43
2023-04-16T01:06:09.837Z,2.20
2023-04-16T01:08:38.314Z,2.40
2023-04-16T01:11:06.996Z,1.93
2023-04-16T01:13:39.235Z,2.10
2023-04-16T01:16:08.446Z,2.30
2023-04-16T01:18:37.325Z,1.80
2023-04-16T01:21:07.342Z,2.20
2023-04-16T01:23:35.933Z,2.27
2023-04-16T01:26:04.491Z,2.30
2023-04-16T01:28:33.055Z,2.30
2023-04-16T01:31:01.725Z,2.33
2023-04-16T01:33:30.452Z,2.23
2023-04-16T01:35:58.920Z,2.30
2023-04-16T01:38:28.880Z,2.30
2023-04-16T01:40:59.497Z,2.20
2023-04-16T01:43:27.981Z,2.43
2023-04-16T01:46:01.642Z,2.10
2023-04-16T01:48:30.345Z,2.40
2023-04-16T01:51:00.514Z,2.10
2023-04-16T01:53:30.580Z,2.00
2023-04-16T01:55:59.018Z,2.43
2023-04-16T01:58:29.839Z,2.40
2023-04-16T02:00:58.553Z,2.10
2023-04-16T02:03:27.377Z,2.33
2023-04-16T02:05:55.991Z,2.40
2023-04-16T02:08:24.718Z,1.87
2023-04-16T02:10:54.551Z,2.10
2023-04-16T02:13:23.375Z,2.03
2023-04-16T02:15:52.548Z,2.00
2023-04-16T02:18:21.010Z,2.00
2023-04-16T02:20:50.620Z,1.93
2023-04-16T02:23:19.279Z,2.17
2023-04-16T02:25:48.500Z,2.20
2023-04-16T02:28:19.061Z,2.40
2023-04-16T02:30:47.780Z,2.47
2023-04-16T02:33:16.228Z,2.57
2023-04-16T02:35:44.759Z,2.30
2023-04-16T02:38:13.387Z,2.13
2023-04-16T02:40:41.898Z,2.40
2023-04-16T02:43:10.361Z,2.37
2023-04-16T02:45:40.443Z,2.10
2023-04-16T02:48:09.720Z,2.30
2023-04-16T02:50:38.207Z,2.30
2023-04-16T02:53:08.040Z,2.17
2023-04-16T02:55:36.482Z,2.10
2023-04-16T02:58:04.934Z,2.20
2023-04-16T03:00:33.638Z,2.20
2023-04-16T03:03:03.634Z,2.23
2023-04-16T03:05:32.123Z,1.77
2023-04-16T03:08:00.686Z,2.37
2023-04-16T03:10:29.253Z,2.20
2023-04-16T03:12:57.763Z,1.90
2023-04-16T03:15:26.521Z,2.17
2023-04-16T03:17:55.130Z,2.10
2023-04-16T03:20:24.984Z,2.20
2023-04-16T03:22:53.743Z,2.10
2023-04-16T03:25:22.404Z,2.20
2023-04-16T03:27:50.884Z,2.00
2023-04-16T03:30:19.434Z,2.17
2023-04-16T03:32:48.046Z,2.17
2023-04-16T03:35:16.813Z,2.00
2023-04-16T03:37:46.840Z,2.00
2023-04-16T03:40:15.817Z,2.30
2023-04-16T03:42:44.386Z,2.20
2023-04-16T03:45:13.225Z,1.77
2023-04-16T03:47:41.740Z,2.03
2023-04-16T03:50:11.638Z,2.20
2023-04-16T03:52:41.177Z,2.30
2023-04-16T03:55:11.701Z,2.13
2023-04-16T03:57:40.403Z,2.30
2023-04-16T04:00:10.137Z,2.30
2023-04-16T04:02:38.721Z,2.20
2023-04-16T04:05:07.627Z,2.17
2023-04-16T04:07:36.332Z,2.03
2023-04-16T04:10:04.813Z,2.10
2023-04-16T04:12:35.166Z,2.10
2023-04-16T04:15:03.848Z,1.80
2023-04-16T04:17:32.331Z,1.73
2023-04-16T04:20:01.886Z,2.03
2023-04-16T04:22:30.905Z,2.20
2023-04-16T04:24:59.339Z,1.80
2023-04-16T04:27:27.928Z,1.97
2023-04-16T04:29:58.447Z,1.90
2023-04-16T04:32:26.934Z,2.00
2023-04-16T04:34:55.530Z,2.10
2023-04-16T04:37:24.198Z,1.87
2023-04-16T04:39:52.690Z,1.80
2023-04-16T04:42:21.232Z,2.10
2023-04-16T04:44:49.814Z,2.40
2023-04-16T04:47:19.680Z,1.80
2023-04-16T04:49:48.267Z,2.03
2023-04-16T04:52:16.981Z,1.90
2023-04-16T04:54:45.425Z,2.00
2023-04-16T04:57:14.008Z,2.17
2023-04-16T04:59:42.572Z,2.10
2023-04-16T05:02:11.090Z,2.00
2023-04-16T05:04:41.136Z,1.77
2023-04-16T05:07:09.729Z,2.10
2023-04-16T05:09:38.195Z,1.93
2023-04-16T05:12:06.843Z,2.00
2023-04-16T05:14:36.395Z,1.83
2023-04-16T05:17:04.982Z,1.90
2023-04-16T05:19:33.660Z,1.80
2023-04-16T05:22:03.570Z,1.73
2023-04-16T05:24:32.030Z,2.00
2023-04-16T05:27:00.611Z,1.90
2023-04-16T05:29:29.167Z,1.57
2023-04-16T05:31:57.639Z,1.70
2023-04-16T05:34:26.204Z,1.90
2023-04-16T05:36:54.850Z,1.97
2023-04-16T05:39:24.675Z,1.87
2023-04-16T05:41:53.157Z,1.70
2023-04-16T05:44:21.843Z,2.17
2023-04-16T05:46:50.323Z,2.07
2023-04-16T05:49:20.030Z,1.90
2023-04-16T05:51:50.727Z,1.90
2023-04-16T05:54:19.633Z,1.80
2023-04-16T05:56:49.607Z,1.80
2023-04-16T05:59:18.089Z,2.10
2023-04-16T06:01:46.669Z,1.80
2023-04-16T06:04:15.337Z,1.70
2023-04-16T06:06:44.062Z,1.70
2023-04-16T06:09:12.676Z,1.77
2023-04-16T06:11:41.314Z,2.00
2023-04-16T06:14:11.211Z,1.60
2023-04-16T06:16:39.812Z,1.63
2023-04-16T06:19:08.985Z,2.30
2023-04-16T06:21:38.021Z,1.70
2023-04-16T06:24:06.667Z,1.90
2023-04-16T06:26:35.292Z,1.80
2023-04-16T06:29:03.736Z,1.77
2023-04-16T06:31:33.817Z,1.77
2023-04-16T06:34:02.567Z,1.73
2023-04-16T06:36:31.282Z,1.73
2023-04-16T06:38:59.844Z,1.97
2023-04-16T06:41:28.849Z,1.80
2023-04-16T06:43:57.306Z,1.60
2023-04-16T06:46:26.084Z,1.90
2023-04-16T06:48:56.138Z,1.90
2023-04-16T06:51:27.063Z,2.10
2023-04-16T06:53:55.676Z,1.83
2023-04-16T06:56:24.237Z,1.80
2023-04-16T06:58:52.734Z,1.80
2023-04-16T07:01:21.366Z,1.60
2023-04-16T07:03:50.186Z,1.63
2023-04-16T07:06:20.304Z,1.80
2023-04-16T07:08:48.900Z,1.60
2023-04-16T07:11:17.603Z,1.70
2023-04-16T07:13:46.068Z,1.87
2023-04-16T07:16:14.699Z,1.63
2023-04-16T07:18:43.357Z,1.70
2023-04-16T07:21:11.914Z,2.00
2023-04-16T07:23:41.815Z,1.83
2023-04-16T07:26:11.638Z,1.90
2023-04-16T07:28:40.082Z,2.00
2023-04-16T07:31:09.378Z,1.77
2023-04-16T07:33:37.962Z,1.80
2023-04-16T07:36:06.722Z,1.80
2023-04-16T07:38:35.733Z,1.87
2023-04-16T07:41:05.917Z,1.80
2023-04-16T07:43:34.391Z,1.60
2023-04-16T07:46:02.868Z,1.70
2023-04-16T07:48:31.686Z,1.67
2023-04-16T07:51:00.194Z,2.00
2023-04-16T07:53:29.527Z,1.60
2023-04-16T07:55:58.153Z,1.80
2023-04-16T07:58:28.010Z,1.60
2023-04-16T08:00:56.527Z,1.70
2023-04-16T08:03:25.541Z,1.90
2023-04-16T08:05:54.207Z,1.70
2023-04-16T08:08:22.700Z,1.80
2023-04-16T08:10:55.900Z,1.60
2023-04-16T08:13:24.755Z,1.70
2023-04-16T08:15:57.173Z,1.70
2023-04-16T08:18:25.770Z,1.80
2023-04-16T08:20:54.226Z,1.80
2023-04-16T08:23:22.915Z,1.73
2023-04-16T08:25:52.916Z,2.00
2023-04-16T08:28:21.530Z,1.50
2023-04-16T08:30:50.213Z,1.60
2023-04-16T08:33:20.070Z,2.20
2023-04-16T08:35:48.551Z,1.70
2023-04-16T08:38:17.288Z,1.90
2023-04-16T08:40:47.276Z,2.03
2023-04-16T08:43:16.616Z,1.80
2023-04-16T08:45:46.054Z,1.80
2023-04-16T08:48:14.504Z,1.80
2023-04-16T08:50:45.549Z,1.60
2023-04-16T08:53:17.188Z,1.70
2023-04-16T08:55:48.926Z,2.10
2023-04-16T08:58:20.721Z,1.93
2023-04-16T09:00:50.529Z,1.80
2023-04-16T09:03:21.806Z,1.70
2023-04-16T09:05:52.233Z,1.80
2023-04-16T09:08:21.325Z,1.70
2023-04-16T09:10:50.448Z,1.60
2023-04-16T09:13:20.542Z,1.63
2023-04-16T09:15:49.172Z,1.87
2023-04-16T09:18:17.785Z,1.73
2023-04-16T09:20:46.261Z,2.03
2023-04-16T09:23:16.179Z,1.70
2023-04-16T09:25:44.781Z,2.13
2023-04-16T09:28:13.246Z,1.75
2023-04-16T09:30:42.652Z,1.80
2023-04-16T09:33:16.874Z,1.70
2023-04-16T09:35:48.631Z,1.80
2023-04-16T09:38:18.942Z,1.97
2023-04-16T09:40:48.228Z,1.83
2023-04-16T09:43:17.728Z,2.10
2023-04-16T09:45:52.801Z,1.87
2023-04-16T09:48:30.947Z,1.77
2023-04-16T09:50:59.715Z,1.90
2023-04-16T09:53:30.776Z,1.93
2023-04-16T09:55:59.583Z,1.87
2023-04-16T09:58:28.738Z,2.00
2023-04-16T10:00:58.517Z,1.93
2023-04-16T10:03:33.366Z,1.70
2023-04-16T10:06:03.253Z,2.00
2023-04-16T10:08:33.096Z,1.67
2023-04-16T10:11:01.619Z,2.00
2023-04-16T10:13:31.298Z,1.77
2023-04-16T10:18:36.791Z,1.70
2023-04-16T10:21:05.503Z,2.10
2023-04-16T10:23:35.544Z,1.90
2023-04-16T10:26:04.432Z,1.80
2023-04-16T10:28:35.349Z,1.80
2023-04-16T10:31:04.359Z,1.70
2023-04-16T10:33:34.436Z,1.80
2023-04-16T10:36:09.848Z,2.13
2023-04-16T10:38:41.835Z,1.80
2023-04-16T10:41:10.784Z,2.20
2023-04-16T10:43:42.659Z,1.80
2023-04-16T10:46:21.171Z,2.00
2023-04-16T10:48:50.926Z,2.00
2023-04-16T10:51:27.903Z,2.00
2023-04-16T10:53:58.451Z,1.93
2023-04-16T10:56:27.695Z,1.93
2023-04-16T10:58:57.314Z,1.80
2023-04-16T11:01:32.117Z,1.70
2023-04-16T11:04:02.989Z,1.60
2023-04-16T11:06:32.049Z,2.07
2023-04-16T11:09:05.919Z,1.90
2023-04-16T11:11:40.254Z,2.00
2023-04-16T11:14:09.948Z,1.70
2023-04-16T11:16:42.568Z,1.77
2023-04-16T11:19:17.786Z,2.00
2023-04-16T11:21:46.932Z,1.80
2023-04-16T11:24:16.944Z,1.73
2023-04-16T11:26:45.485Z,1.90
2023-04-16T11:29:16.291Z,1.93
2023-04-16T11:31:44.992Z,1.80
2023-04-16T11:34:13.671Z,2.00
2023-04-16T11:36:45.482Z,1.87
2023-04-16T11:39:13.999Z,1.97
2023-04-16T11:41:46.296Z,1.90
2023-04-16T11:44:21.489Z,1.70
2023-04-16T11:46:50.595Z,1.80
2023-04-16T11:49:19.472Z,1.60
2023-04-16T11:51:48.785Z,1.60
2023-04-16T11:54:21.358Z,1.80
2023-04-16T11:56:52.079Z,1.70
2023-04-16T11:59:22.488Z,1.57
2023-04-16T12:01:52.155Z,2.03
2023-04-16T12:04:22.350Z,2.00
2023-04-16T12:07:09.596Z,1.90
2023-04-16T12:09:40.537Z,1.60
2023-04-16T12:12:27.573Z,1.80
2023-04-16T12:14:56.947Z,1.80
2023-04-16T12:17:26.034Z,1.93
2023-04-16T12:19:55.136Z,1.87
2023-04-16T12:22:29.059Z,2.03
2023-04-16T12:24:58.362Z,1.87
2023-04-16T12:27:28.835Z,1.83
2023-04-16T12:30:07.502Z,1.83
2023-04-16T12:32:36.173Z,1.97
2023-04-16T12:35:05.107Z,1.77
2023-04-16T12:37:33.630Z,1.90
2023-04-16T12:40:02.263Z,2.07
2023-04-16T12:42:36.122Z,2.23
2023-04-16T12:45:05.356Z,2.10
2023-04-16T12:47:33.862Z,2.00
2023-04-16T12:50:02.511Z,2.03
2023-04-16T12:52:31.075Z,2.00
2023-04-16T12:54:59.549Z,2.20
2023-04-16T12:57:28.925Z,1.87
2023-04-16T12:59:58.809Z,1.80
2023-04-16T13:02:27.713Z,1.97
2023-04-16T13:04:56.722Z,2.05
2023-04-16T13:07:26.733Z,2.10
2023-04-16T13:09:55.233Z,1.80
2023-04-16T13:12:24.007Z,1.70
2023-04-16T13:14:52.473Z,2.00
2023-04-16T13:17:22.365Z,1.83
2023-04-16T13:19:51.067Z,1.90
2023-04-16T13:22:19.628Z,1.80
2023-04-16T13:24:48.090Z,2.20
2023-04-16T13:27:17.057Z,2.20
2023-04-16T13:29:45.523Z,1.77
2023-04-16T13:32:17.518Z,2.08
2023-04-16T13:34:47.436Z,1.95
2023-04-16T13:37:17.520Z,2.10
2023-04-16T13:39:46.632Z,1.98
2023-04-16T13:42:15.127Z,2.00
2023-04-16T13:44:43.774Z,2.00
2023-04-16T13:47:12.447Z,2.00
2023-04-16T13:49:40.923Z,1.67
2023-04-16T13:52:10.849Z,1.83
2023-04-16T13:54:40.596Z,1.90
2023-04-16T13:57:09.203Z,1.77
2023-04-16T13:59:37.804Z,1.80
2023-04-16T14:02:06.436Z,1.80
2023-04-16T14:04:34.928Z,1.97
2023-04-16T14:07:03.647Z,1.87
2023-04-16T14:09:33.595Z,1.80
2023-04-16T14:12:02.279Z,1.77
2023-04-16T14:14:33.783Z,1.80
2023-04-16T14:17:03.439Z,1.80
2023-04-16T14:19:34.456Z,1.90
2023-04-16T14:22:02.920Z,1.60
2023-04-16T14:24:33.279Z,1.70
2023-04-16T14:27:01.759Z,1.83
2023-04-16T14:29:30.439Z,1.77
2023-04-16T14:31:59.182Z,1.80
2023-04-16T14:34:27.723Z,2.00
2023-04-16T14:36:56.236Z,2.07
2023-04-16T14:39:25.072Z,2.10
2023-04-16T14:41:54.914Z,1.80
2023-04-16T14:44:23.824Z,1.70
2023-04-16T14:46:52.510Z,1.87
2023-04-16T14:49:20.962Z,2.00
2023-04-16T14:51:49.434Z,2.17
2023-04-16T14:54:18.123Z,2.60
2023-04-16T14:56:47.351Z,1.90
2023-04-16T14:59:17.221Z,1.90
2023-04-16T15:01:46.527Z,1.63
2023-04-16T15:04:15.270Z,2.00
2023-04-16T15:06:43.786Z,2.00
2023-04-16T15:09:12.706Z,1.95
2023-04-16T15:11:41.323Z,2.22
2023-04-16T15:14:10.060Z,1.90
2023-04-16T15:16:40.374Z,1.60
2023-04-16T15:19:09.158Z,2.00
2023-04-16T15:21:37.806Z,2.13
2023-04-16T15:24:06.587Z,2.35
2023-04-16T15:26:35.052Z,2.08
2023-04-16T15:29:03.523Z,2.13
2023-04-16T15:31:32.253Z,2.20
2023-04-16T15:34:02.255Z,2.22
2023-04-16T15:36:30.737Z,2.20
2023-04-16T15:38:59.599Z,2.15
2023-04-16T15:41:30.733Z,2.13
2023-04-16T15:43:59.312Z,2.35
2023-04-16T15:46:28.160Z,2.30
2023-04-16T15:48:56.672Z,2.22
2023-04-16T15:51:26.779Z,2.00
2023-04-16T15:53:55.486Z,2.27
2023-04-16T15:56:23.955Z,2.20
2023-04-16T15:58:52.673Z,2.27
2023-04-16T16:01:22.434Z,2.20
2023-04-16T16:03:52.459Z,1.90
2023-04-16T16:06:21.512Z,2.03
2023-04-16T16:08:51.748Z,2.10
2023-04-16T16:11:20.203Z,2.20
2023-04-16T16:13:48.663Z,2.07
2023-04-16T16:16:17.357Z,2.00
2023-04-16T16:18:46.006Z,2.07
2023-04-16T16:21:14.492Z,2.00
2023-04-16T16:23:43.222Z,1.90
2023-04-16T16:26:13.078Z,2.07
2023-04-16T16:28:43.874Z,2.20
2023-04-16T16:31:12.898Z,1.90
2023-04-16T16:33:41.386Z,2.00
2023-04-16T16:36:11.634Z,2.30
2023-04-16T16:38:41.398Z,2.50
2023-04-16T16:41:09.944Z,2.20
2023-04-16T16:43:39.787Z,2.10
2023-04-16T16:46:10.014Z,1.87
2023-04-16T16:48:38.540Z,2.10
2023-04-16T16:51:11.228Z,2.00
2023-04-16T16:53:39.802Z,2.20
2023-04-16T16:56:08.339Z,2.20
2023-04-16T16:58:36.862Z,1.93
2023-04-16T17:01:07.046Z,2.20
2023-04-16T17:03:35.913Z,2.23
2023-04-16T17:06:04.668Z,2.37
2023-04-16T17:08:33.197Z,1.90
2023-04-16T17:11:04.420Z,1.87
2023-04-16T17:13:33.794Z,1.87
2023-04-16T17:16:02.440Z,1.90
2023-04-16T17:18:32.439Z,2.37
2023-04-16T17:21:01.064Z,2.10
2023-04-16T17:23:29.688Z,2.20
2023-04-16T17:25:58.148Z,2.37
2023-04-16T17:28:27.166Z,2.27
2023-04-16T17:30:56.888Z,2.40
2023-04-16T17:33:25.362Z,3.03
2023-04-16T17:35:55.505Z,2.17
2023-04-16T17:38:24.123Z,2.30
2023-04-16T17:40:52.589Z,2.50
2023-04-16T17:43:21.511Z,2.10
2023-04-16T17:45:50.100Z,2.20
2023-04-16T17:48:18.615Z,2.10
2023-04-16T17:50:47.270Z,2.20
2023-04-16T17:53:17.261Z,2.20
2023-04-16T17:55:52.782Z,2.50
2023-04-16T17:58:22.088Z,2.53
2023-04-16T18:00:53.014Z,2.33
2023-04-16T18:03:22.292Z,2.83
2023-04-16T18:05:50.982Z,2.30
2023-04-16T18:08:21.100Z,2.17
2023-04-16T18:10:49.576Z,2.50
2023-04-16T18:13:18.211Z,2.37
2023-04-16T18:15:47.350Z,2.57
2023-04-16T18:18:15.845Z,2.57
2023-04-16T18:20:44.449Z,2.50
2023-04-16T18:23:12.986Z,2.47
2023-04-16T18:25:42.864Z,2.60
2023-04-16T18:28:13.785Z,2.50
2023-04-16T18:30:42.919Z,2.77
2023-04-16T18:33:43.572Z,2.23
2023-04-16T18:36:02.308Z,2.30
2023-04-16T18:38:31.508Z,2.20
2023-04-16T18:41:01.962Z,2.10
2023-04-16T18:43:31.151Z,2.43
2023-04-16T18:45:59.643Z,2.50
2023-04-16T18:48:28.082Z,2.50
2023-04-16T18:50:58.161Z,2.20
2023-04-16T18:53:26.651Z,2.20
2023-04-16T18:55:55.149Z,2.23
2023-04-16T18:58:25.217Z,2.40
2023-04-16T19:00:54.999Z,2.60
2023-04-16T19:03:23.517Z,2.20
2023-04-16T19:05:53.671Z,2.33
2023-04-16T19:08:22.205Z,2.50
2023-04-16T19:10:50.899Z,2.57
2023-04-16T19:13:19.509Z,2.77
2023-04-16T19:15:49.376Z,2.60
2023-04-16T19:18:17.949Z,2.77
2023-04-16T19:20:49.796Z,2.93
2023-04-16T19:23:18.256Z,3.00
2023-04-16T19:25:46.714Z,2.83
2023-04-16T19:28:15.319Z,2.73
2023-04-16T19:30:46.690Z,2.70
2023-04-16T19:33:16.607Z,2.77
2023-04-16T19:35:45.238Z,2.73
2023-04-16T19:38:13.699Z,2.83
2023-04-16T19:40:42.248Z,2.87
2023-04-16T19:43:10.875Z,2.77
2023-04-16T19:45:44.279Z,2.80
2023-04-16T19:48:12.862Z,3.00
2023-04-16T19:50:43.119Z,3.07
2023-04-16T19:53:11.980Z,3.00
2023-04-16T19:55:41.276Z,2.90
2023-04-16T19:58:09.813Z,3.00
2023-04-16T20:00:38.976Z,3.27
2023-04-16T20:03:07.607Z,3.37
2023-04-16T20:05:36.171Z,3.00
2023-04-16T20:08:06.366Z,3.03
2023-04-16T20:10:35.065Z,3.20
2023-04-16T20:13:03.514Z,3.30
2023-04-16T20:15:32.063Z,3.30
2023-04-16T20:18:00.698Z,3.47
2023-04-16T20:20:29.208Z,3.17
2023-04-16T20:22:58.489Z,2.80
2023-04-16T20:25:29.315Z,3.40
2023-04-16T20:27:57.813Z,3.67
2023-04-16T20:30:29.577Z,3.43
2023-04-16T20:32:58.479Z,3.43
2023-04-16T20:35:27.193Z,3.03
2023-04-16T20:37:55.854Z,3.17
2023-04-16T20:40:30.502Z,3.37
2023-04-16T20:43:01.145Z,3.30
2023-04-16T20:45:32.231Z,3.13
2023-04-16T20:48:01.281Z,3.50
2023-04-16T20:50:29.870Z,3.17
2023-04-16T20:52:58.544Z,3.10
2023-04-16T20:55:27.256Z,3.03
2023-04-16T20:57:55.808Z,3.40
2023-04-16T21:00:26.168Z,3.67
2023-04-16T21:02:54.732Z,3.40
2023-04-16T21:05:24.054Z,3.33
2023-04-16T21:07:55.306Z,3.40
2023-04-16T21:10:24.424Z,3.50
2023-04-16T21:12:52.906Z,3.57
2023-04-16T21:15:21.422Z,3.57
2023-04-16T21:17:51.385Z,3.83
2023-04-16T21:20:19.951Z,3.87
2023-04-16T21:22:48.474Z,3.80
2023-04-16T21:25:17.006Z,3.77
2023-04-16T21:27:45.575Z,3.60
2023-04-16T21:30:14.734Z,3.83
2023-04-16T21:32:43.315Z,3.60
2023-04-16T21:35:13.356Z,3.20
2023-04-16T21:37:41.885Z,3.60
2023-04-16T21:40:10.698Z,3.73
2023-04-16T21:42:40.047Z,3.87
2023-04-16T21:45:09.518Z,3.47
2023-04-16T21:47:38.467Z,3.43
2023-04-16T21:50:07.313Z,3.43
2023-04-16T21:52:40.538Z,4.07
2023-04-16T21:55:10.313Z,3.17
2023-04-16T21:57:38.775Z,3.57
2023-04-16T22:00:09.332Z,3.70
2023-04-16T22:02:38.004Z,3.50
2023-04-16T22:05:07.470Z,3.33
2023-04-16T22:07:37.851Z,3.50
2023-04-16T22:10:06.843Z,3.43
2023-04-16T22:12:37.761Z,3.57
2023-04-16T22:15:07.353Z,3.40
2023-04-16T22:17:36.128Z,3.40
2023-04-16T22:20:08.713Z,3.60
2023-04-16T22:22:38.691Z,3.50
2023-04-16T22:25:07.594Z,3.43
2023-04-16T22:27:36.226Z,3.30
2023-04-16T22:30:04.798Z,3.60
2023-04-16T22:32:33.367Z,3.67
2023-04-16T22:35:02.150Z,3.30
2023-04-16T22:37:32.496Z,3.63
2023-04-16T22:40:03.582Z,3.47
2023-04-16T22:42:32.177Z,3.40
2023-04-16T22:45:00.835Z,3.57
2023-04-16T22:47:29.421Z,3.20
2023-04-16T22:49:58.055Z,3.17
2023-04-16T22:52:28.413Z,3.90
2023-04-16T22:54:56.995Z,3.40
2023-04-16T22:57:26.959Z,3.40
2023-04-16T22:59:56.310Z,3.40
2023-04-16T23:02:24.979Z,3.60
2023-04-16T23:04:53.569Z,3.40
2023-04-16T23:07:22.068Z,3.53
2023-04-16T23:09:50.682Z,3.30
2023-04-16T23:12:19.440Z,3.57
2023-04-16T23:14:49.291Z,3.33
2023-04-16T23:17:17.855Z,3.93
2023-04-16T23:19:46.415Z,3.40
2023-04-16T23:22:14.968Z,3.50
2023-04-16T23:24:43.540Z,3.13
2023-04-16T23:27:12.248Z,3.50
2023-04-16T23:29:40.698Z,3.07
2023-04-16T23:32:10.712Z,3.10
2023-04-16T23:34:39.297Z,3.57
2023-04-16T23:37:07.783Z,3.07
2023-04-16T23:39:36.321Z,3.00
2023-04-16T23:42:05.038Z,3.57
2023-04-16T23:44:33.541Z,3.33
2023-04-16T23:47:02.315Z,3.60
2023-04-16T23:49:32.442Z,3.60
2023-04-16T23:52:00.917Z,3.77
2023-04-16T23:54:29.665Z,3.57
2023-04-16T23:56:58.284Z,3.63
2023-04-16T23:59:26.748Z,3.23
